TAF Text Data
IDs:
Format:
Raw Decoded Include METAR

Data at: 2026 UTC 01 Oct 2022

WSSS 012000Z 10006KT 7000 -TSRA FEW015CB FEW017TCU BKN150 25/24 Q1009 TEMPO TL2100 4500 TSRA BECMG FM2130 RA

TAF AMD WSSS 011945Z 0119/0300 VRB05KT 9999 FEW015 BKN020
  TEMPO 0119/0123 3000 TSRA FEW012CB BKN015